Wetterstation Vordersexau
Wetterdaten: Woche 10.03.14 - 16.03.14 (KW11)
Datum Zeit Temp. A. Feuchte A. Luftdruck Regen Wind Richtung Taupunkt Windchill Windben
10.03.2014 00:00 3,4 C 80 % 996,0 hPa 0,0 l/m 0,0 km/h O-NO 0,3 C 3,4 C 0,0 km/h
10.03.2014 01:00 2,9 C 81 % 995,7 hPa 0,0 l/m 0,0 km/h O-SO -0,0 C 2,9 C 0,0 km/h
10.03.2014 02:00 1,6 C 81 % 995,2 hPa 0,0 l/m 0,0 km/h NO -1,3 C 1,6 C 0,0 km/h
10.03.2014 03:00 1,9 C 80 % 995,1 hPa 0,0 l/m 0,0 km/h N-NO -1,2 C 1,9 C 0,0 km/h
10.03.2014 04:00 1,5 C 81 % 994,8 hPa 0,0 l/m 0,0 km/h O-SO -1,4 C 1,5 C 0,0 km/h
10.03.2014 05:00 -0,1 C 82 % 994,6 hPa 0,0 l/m 0,0 km/h O -2,8 C -0,1 C 0,0 km/h
10.03.2014 06:00 0,1 C 83 % 994,4 hPa 0,0 l/m 0,0 km/h N-NO -2,4 C 0,1 C 0,0 km/h
10.03.2014 07:00 -0,1 C 83 % 994,5 hPa 0,0 l/m 0,0 km/h N-NO -2,6 C -0,1 C 0,0 km/h
10.03.2014 08:00 4,9 C 80 % 994,9 hPa 0,0 l/m 0,0 km/h N-NO 1,7 C 4,9 C 0,0 km/h
10.03.2014 09:00 11,4 C 65 % 994,4 hPa 0,0 l/m 0,0 km/h W 5,1 C 11,4 C 0,0 km/h
10.03.2014 10:00 15,4 C 48 % 993,7 hPa 0,0 l/m 1,3 km/h W 4,4 C 15,4 C 0,7 km/h
10.03.2014 11:00 17,8 C 45 % 993,4 hPa 0,0 l/m 2,6 km/h N 5,7 C 17,8 C 1,4 km/h
10.03.2014 12:00 18,3 C 40 % 992,7 hPa 0,0 l/m 15,6 km/h W-NW 4,5 C 15,0 C 8,6 km/h
10.03.2014 13:00 17,6 C 46 % 991,9 hPa 0,0 l/m 13,6 km/h W-SW 5,8 C 14,8 C 7,6 km/h
10.03.2014 14:00 18,4 C 45 % 991,2 hPa 0,0 l/m 14,9 km/h N-NW 6,3 C 15,3 C 8,3 km/h
10.03.2014 15:00 21,4 C 39 % 990,9 hPa 0,0 l/m 1,3 km/h W 6,9 C 21,4 C 0,7 km/h
10.03.2014 16:00 21,4 C 41 % 990,5 hPa 0,0 l/m 5,2 km/h SO 7,6 C 21,4 C 2,9 km/h
10.03.2014 17:00 21,0 C 41 % 990,8 hPa 0,0 l/m 0,0 km/h SO 7,2 C 21,0 C 0,0 km/h
10.03.2014 18:00 13,8 C 55 % 991,4 hPa 0,0 l/m 0,0 km/h O-SO 4,9 C 13,8 C 0,0 km/h
10.03.2014 19:00 8,5 C 70 % 991,9 hPa 0,0 l/m 0,0 km/h O 3,3 C 8,5 C 0,0 km/h
10.03.2014 20:00 6,5 C 75 % 992,3 hPa 0,0 l/m 0,0 km/h O-NO 2,4 C 6,5 C 0,0 km/h
10.03.2014 21:00 5,3 C 77 % 992,8 hPa 0,0 l/m 0,0 km/h NO 1,6 C 5,3 C 0,0 km/h
10.03.2014 22:00 4,3 C 78 % 993,6 hPa 0,0 l/m 0,0 km/h O-NO 0,8 C 4,3 C 0,0 km/h
10.03.2014 23:00 3,4 C 80 % 993,5 hPa 0,0 l/m 0,0 km/h O-SO 0,3 C 3,4 C 0,0 km/h
11.03.2014 00:00 2,8 C 82 % 993,4 hPa 0,0 l/m 0,0 km/h NO 0,0 C 2,8 C 0,0 km/h
11.03.2014 01:00 2,2 C 83 % 993,4 hPa 0,0 l/m 0,0 km/h O-SO -0,4 C 2,2 C 0,0 km/h
11.03.2014 02:00 1,6 C 83 % 993,6 hPa 0,0 l/m 0,0 km/h NO -1,0 C 1,6 C 0,0 km/h
11.03.2014 03:00 1,3 C 84 % 993,8 hPa 0,0 l/m 0,0 km/h SO -1,1 C 1,3 C 0,0 km/h
11.03.2014 04:00 1,4 C 84 % 993,9 hPa 0,0 l/m 0,0 km/h NO -1,0 C 1,4 C 0,0 km/h
11.03.2014 05:00 2,7 C 84 % 994,2 hPa 0,0 l/m 0,0 km/h N-NW 0,3 C 2,7 C 0,0 km/h
11.03.2014 06:00 2,8 C 81 % 994,6 hPa 0,0 l/m 0,0 km/h N-NW -0,1 C 2,8 C 0,0 km/h
11.03.2014 07:00 0,5 C 84 % 995,0 hPa 0,0 l/m 0,0 km/h N-NW -1,9 C 0,5 C 0,0 km/h
11.03.2014 08:00 3,5 C 85 % 995,5 hPa 0,0 l/m 0,0 km/h NW 1,2 C 3,5 C 0,0 km/h
11.03.2014 09:00 6,2 C 80 % 1022,6 hPa 0,0 l/m 0,0 km/h SW 3,0 C 6,2 C 0,0 km/h
11.03.2014 10:00 12,1 C 70 % 1022,6 hPa 0,0 l/m 0,0 km/h S-SO 6,8 C 12,1 C 0,0 km/h
11.03.2014 11:00 16,2 C 58 % 1022,4 hPa 0,0 l/m 0,0 km/h W 7,9 C 16,2 C 0,0 km/h
11.03.2014 12:00 18,8 C 47 % 995,0 hPa 0,0 l/m 1,9 km/h SW 7,2 C 18,8 C 1,1 km/h
11.03.2014 13:00 20,8 C 41 % 994,5 hPa 0,0 l/m 0,0 km/h N 7,1 C 20,8 C 0,0 km/h
11.03.2014 14:00 22,9 C 29 % 993,9 hPa 0,0 l/m 3,2 km/h N-NO 3,9 C 22,9 C 1,8 km/h
11.03.2014 15:00 25,5 C 27 % 994,0 hPa 0,0 l/m 8,4 km/h O-NO 5,1 C 25,0 C 4,7 km/h
11.03.2014 16:00 24,3 C 25 % 994,5 hPa 0,0 l/m 0,0 km/h W-NW 3,0 C 24,3 C 0,0 km/h
11.03.2014 17:00 22,8 C 25 % 994,8 hPa 0,0 l/m 0,0 km/h NO 1,7 C 22,8 C 0,0 km/h
11.03.2014 18:00 14,5 C 32 % 995,7 hPa 0,0 l/m 0,0 km/h N -2,0 C 14,5 C 0,0 km/h
11.03.2014 19:00 10,1 C 38 % 996,8 hPa 0,0 l/m 0,0 km/h N-NO -3,6 C 10,1 C 0,0 km/h
11.03.2014 20:00 9,3 C 41 % 997,4 hPa 0,0 l/m 0,0 km/h NW -3,3 C 9,3 C 0,0 km/h
11.03.2014 21:00 7,9 C 44 % 997,7 hPa 0,0 l/m 0,0 km/h W-NW -3,6 C 7,9 C 0,0 km/h
11.03.2014 22:00 5,9 C 53 % 997,7 hPa 0,0 l/m 1,1 km/h SO -2,9 C 5,9 C 1,1 km/h
11.03.2014 23:00 3,9 C 59 % 997,7 hPa 0,0 l/m 0,0 km/h O -3,4 C 3,9 C 0,0 km/h
12.03.2014 00:00 2,8 C 65 % 997,8 hPa 0,0 l/m 0,0 km/h O-NO -3,1 C 2,8 C 0,0 km/h
12.03.2014 01:00 1,5 C 69 % 997,8 hPa 0,0 l/m 0,0 km/h N-NO -3,6 C 1,5 C 0,0 km/h
12.03.2014 02:00 1,4 C 74 % 997,9 hPa 0,0 l/m 0,0 km/h N-NO -2,7 C 1,4 C 0,0 km/h
12.03.2014 03:00 1,2 C 76 % 998,1 hPa 0,0 l/m 0,0 km/h NO -2,5 C 1,2 C 0,0 km/h
12.03.2014 04:00 -0,1 C 78 % 998,3 hPa 0,0 l/m 0,0 km/h NO -3,5 C -0,1 C 0,0 km/h
12.03.2014 05:00 -0,7 C 79 % 998,4 hPa 0,0 l/m 0,0 km/h O-NO -3,9 C -0,7 C 0,0 km/h
12.03.2014 06:00 -1,1 C 81 % 998,7 hPa 0,0 l/m 0,0 km/h O-SO -3,9 C -1,1 C 0,0 km/h
12.03.2014 07:00 -1,5 C 82 % 999,5 hPa 0,0 l/m 0,0 km/h NO -4,2 C -1,5 C 0,0 km/h
12.03.2014 08:00 5,0 C 79 % 1000,1 hPa 0,0 l/m 0,0 km/h W 1,7 C 5,0 C 0,0 km/h
12.03.2014 09:00 10,6 C 62 % 1000,4 hPa 0,0 l/m 0,0 km/h SW 3,6 C 10,6 C 0,0 km/h
12.03.2014 10:00 16,1 C 48 % 1000,6 hPa 0,0 l/m 2,2 km/h SW 5,1 C 16,1 C 2,2 km/h
12.03.2014 11:00 18,4 C 41 % 1000,6 hPa 0,0 l/m 0,0 km/h W 4,9 C 18,4 C 0,0 km/h
12.03.2014 12:00 17,8 C 39 % 1000,0 hPa 0,0 l/m 0,0 km/h N-NW 3,7 C 17,8 C 0,0 km/h
12.03.2014 13:00 17,5 C 41 % 999,6 hPa 0,0 l/m 2,6 km/h W 4,1 C 17,5 C 1,4 km/h
12.03.2014 14:00 20,4 C 38 % 999,0 hPa 0,0 l/m 0,0 km/h W 5,6 C 20,4 C 0,0 km/h
12.03.2014 15:00 22,6 C 35 % 998,6 hPa 0,0 l/m 0,0 km/h W-NW 6,4 C 22,6 C 0,0 km/h
12.03.2014 16:00 23,5 C 33 % 998,2 hPa 0,0 l/m 0,0 km/h SW 6,3 C 23,5 C 0,0 km/h
12.03.2014 17:00 20,5 C 40 % 998,3 hPa 0,0 l/m 0,0 km/h S 6,4 C 20,5 C 0,0 km/h
12.03.2014 18:00 14,1 C 50 % 998,4 hPa 0,0 l/m 0,0 km/h S-SO 3,8 C 14,1 C 0,0 km/h
12.03.2014 19:00 8,2 C 67 % 999,0 hPa 0,0 l/m 0,0 km/h O-SO 2,4 C 8,2 C 0,0 km/h
12.03.2014 20:00 6,9 C 73 % 999,0 hPa 0,0 l/m 0,0 km/h O-NO 2,4 C 6,9 C 0,0 km/h
12.03.2014 21:00 6,2 C 76 % 999,0 hPa 0,0 l/m 0,0 km/h O-SO 2,3 C 6,2 C 0,0 km/h
12.03.2014 22:00 5,8 C 79 % 999,0 hPa 0,0 l/m 0,0 km/h SO 2,4 C 5,8 C 0,0 km/h
12.03.2014 23:00 4,8 C 80 % 998,9 hPa 0,0 l/m 0,0 km/h NO 1,6 C 4,8 C 0,0 km/h
13.03.2014 00:00 4,8 C 80 % 998,7 hPa 0,0 l/m 0,0 km/h NO 1,6 C 4,8 C 0,0 km/h
13.03.2014 01:00 3,9 C 81 % 998,7 hPa 0,0 l/m 0,0 km/h NO 0,9 C 3,9 C 0,0 km/h
13.03.2014 02:00 2,8 C 83 % 998,5 hPa 0,0 l/m 0,0 km/h NO 0,2 C 2,8 C 0,0 km/h
13.03.2014 03:00 2,5 C 84 % 998,4 hPa 0,0 l/m 0,0 km/h N-NO 0,1 C 2,5 C 0,0 km/h
13.03.2014 04:00 1,2 C 85 % 998,6 hPa 0,0 l/m 0,0 km/h O -1,0 C 1,2 C 0,0 km/h
13.03.2014 05:00 0,4 C 85 % 998,7 hPa 0,0 l/m 0,0 km/h O-NO -1,8 C 0,4 C 0,0 km/h
13.03.2014 06:00 -0,1 C 86 % 999,1 hPa 0,0 l/m 0,0 km/h O-NO -2,2 C -0,1 C 0,0 km/h
13.03.2014 07:00 0,1 C 86 % 999,3 hPa 0,0 l/m 0,0 km/h NO -2,0 C 0,1 C 0,0 km/h
13.03.2014 08:00 4,9 C 85 % 999,9 hPa 0,0 l/m 0,0 km/h SO 2,6 C 4,9 C 0,0 km/h
13.03.2014 09:00 11,0 C 73 % 999,8 hPa 0,0 l/m 0,0 km/h N-NW 6,4 C 11,0 C 0,0 km/h
13.03.2014 10:00 16,9 C 52 % 999,6 hPa 0,0 l/m 0,0 km/h SW 7,0 C 16,9 C 0,0 km/h
13.03.2014 11:00 19,2 C 47 % 999,0 hPa 0,0 l/m 1,9 km/h SW 7,6 C 19,2 C 1,1 km/h
13.03.2014 12:00 19,3 C 47 % 998,5 hPa 0,0 l/m 0,0 km/h W 7,7 C 19,3 C 0,0 km/h
13.03.2014 13:00 19,1 C 47 % 997,8 hPa 0,0 l/m 1,3 km/h N-NO 7,5 C 19,1 C 0,7 km/h
13.03.2014 14:00 21,4 C 39 % 997,1 hPa 0,0 l/m 2,6 km/h W-NW 6,9 C 21,4 C 1,4 km/h
13.03.2014 15:00 23,4 C 36 % 996,8 hPa 0,0 l/m 3,2 km/h W 7,5 C 23,4 C 1,8 km/h
13.03.2014 16:00 22,9 C 35 % 996,6 hPa 0,0 l/m 1,3 km/h W 6,6 C 22,9 C 0,7 km/h
13.03.2014 17:00 22,3 C 35 % 996,4 hPa 0,0 l/m 0,0 km/h S-SO 6,1 C 22,3 C 0,0 km/h
13.03.2014 18:00 16,0 C 45 % 996,7 hPa 0,0 l/m 0,0 km/h SO 4,1 C 16,0 C 0,0 km/h
13.03.2014 19:00 9,9 C 63 % 997,1 hPa 0,0 l/m 0,0 km/h O-NO 3,2 C 9,9 C 0,0 km/h
13.03.2014 20:00 7,9 C 72 % 997,4 hPa 0,0 l/m 0,0 km/h NO 3,2 C 7,9 C 0,0 km/h
13.03.2014 21:00 7,0 C 75 % 997,6 hPa 0,0 l/m 0,0 km/h O-SO 2,9 C 7,0 C 0,0 km/h
13.03.2014 22:00 5,9 C 78 % 997,7 hPa 0,0 l/m 0,0 km/h O-NO 2,4 C 5,9 C 0,0 km/h
13.03.2014 23:00 5,6 C 80 % 997,9 hPa 0,0 l/m 0,0 km/h NO 2,4 C 5,6 C 0,0 km/h
14.03.2014 00:00 4,4 C 81 % 997,7 hPa 0,0 l/m 0,0 km/h NO 1,4 C 4,4 C 0,0 km/h
14.03.2014 01:00 4,4 C 83 % 997,9 hPa 0,0 l/m 0,0 km/h NO 1,8 C 4,4 C 0,0 km/h
14.03.2014 02:00 4,1 C 83 % 997,8 hPa 0,0 l/m 0,0 km/h O-SO 1,5 C 4,1 C 0,0 km/h
14.03.2014 03:00 3,1 C 84 % 997,5 hPa 0,0 l/m 0,0 km/h NO 0,7 C 3,1 C 0,0 km/h
14.03.2014 04:00 1,8 C 84 % 997,7 hPa 0,0 l/m 0,0 km/h O-NO -0,6 C 1,8 C 0,0 km/h
14.03.2014 05:00 1,5 C 85 % 997,4 hPa 0,0 l/m 0,0 km/h O-NO -0,7 C 1,5 C 0,0 km/h
14.03.2014 06:00 1,7 C 85 % 997,2 hPa 0,0 l/m 0,0 km/h O-NO -0,5 C 1,7 C 0,0 km/h
14.03.2014 07:00 1,8 C 86 % 997,4 hPa 0,0 l/m 0,0 km/h NO -0,3 C 1,8 C 0,0 km/h
14.03.2014 08:00 7,3 C 85 % 997,6 hPa 0,0 l/m 0,0 km/h NO 4,9 C 7,3 C 0,0 km/h
14.03.2014 09:00 13,0 C 69 % 997,5 hPa 0,0 l/m 0,0 km/h W-SW 7,4 C 13,0 C 0,0 km/h
14.03.2014 10:00 18,4 C 51 % 997,2 hPa 0,0 l/m 0,0 km/h SW 8,1 C 18,4 C 0,0 km/h
14.03.2014 11:00 19,6 C 47 % 996,9 hPa 0,0 l/m 3,2 km/h SW 8,0 C 19,6 C 1,8 km/h
14.03.2014 12:00 20,8 C 43 % 996,4 hPa 0,0 l/m 0,0 km/h S 7,8 C 20,8 C 0,0 km/h
14.03.2014 13:00 21,1 C 42 % 995,5 hPa 0,0 l/m 0,0 km/h W 7,7 C 21,1 C 0,0 km/h
14.03.2014 14:00 22,4 C 40 % 994,6 hPa 0,0 l/m 0,0 km/h W 8,1 C 22,4 C 0,0 km/h
14.03.2014 15:00 24,8 C 35 % 994,2 hPa 0,0 l/m 15,6 km/h S 8,3 C 23,0 C 8,6 km/h
14.03.2014 16:00 26,2 C 32 % 993,7 hPa 0,0 l/m 0,0 km/h S-SO 8,2 C 26,2 C 0,0 km/h
14.03.2014 17:00 24,2 C 34 % 993,4 hPa 0,0 l/m 0,0 km/h W 7,3 C 24,2 C 0,0 km/h
14.03.2014 18:00 15,9 C 47 % 993,7 hPa 0,0 l/m 0,0 km/h SO 4,6 C 15,9 C 0,0 km/h
14.03.2014 19:00 10,4 C 63 % 994,0 hPa 0,0 l/m 0,0 km/h SO 3,7 C 10,4 C 0,0 km/h
14.03.2014 20:00 8,6 C 70 % 994,3 hPa 0,0 l/m 2,6 km/h O-NO 3,4 C 8,6 C 1,4 km/h
14.03.2014 21:00 7,3 C 75 % 994,7 hPa 0,0 l/m 0,0 km/h O 3,2 C 7,3 C 0,0 km/h
14.03.2014 22:00 6,3 C 77 % 994,7 hPa 0,0 l/m 0,0 km/h O 2,6 C 6,3 C 0,0 km/h
14.03.2014 23:00 5,5 C 79 % 995,0 hPa 0,0 l/m 0,0 km/h O-SO 2,2 C 5,5 C 0,0 km/h
15.03.2014 00:00 4,1 C 79 % 994,4 hPa 0,0 l/m 0,0 km/h O-SO 0,8 C 4,1 C 0,0 km/h
15.03.2014 01:00 3,1 C 82 % 994,0 hPa 0,0 l/m 1,8 km/h SO 0,3 C 3,1 C 1,8 km/h
15.03.2014 02:00 3,7 C 83 % 993,6 hPa 0,0 l/m 1,1 km/h O-NO 1,1 C 3,7 C 1,1 km/h
15.03.2014 03:00 3,0 C 84 % 993,2 hPa 0,0 l/m 0,0 km/h O-SO 0,6 C 3,0 C 0,0 km/h
15.03.2014 04:00 3,3 C 84 % 993,5 hPa 0,0 l/m 0,0 km/h SO 0,9 C 3,3 C 0,0 km/h
15.03.2014 05:00 2,8 C 85 % 993,6 hPa 0,0 l/m 5,2 km/h O-SO 0,5 C 2,8 C 2,9 km/h
15.03.2014 06:00 2,8 C 85 % 993,6 hPa 0,0 l/m 0,0 km/h SO 0,5 C 2,8 C 0,0 km/h
15.03.2014 07:00 2,8 C 85 % 993,7 hPa 0,0 l/m 0,0 km/h O-SO 0,5 C 2,8 C 0,0 km/h
15.03.2014 08:00 4,7 C 85 % 993,6 hPa 0,0 l/m 0,0 km/h O 2,4 C 4,7 C 0,0 km/h
15.03.2014 09:00 8,2 C 83 % 993,8 hPa 0,0 l/m 0,0 km/h O-NO 5,5 C 8,2 C 0,0 km/h
15.03.2014 10:00 11,8 C 72 % 994,1 hPa 0,0 l/m 0,0 km/h W-NW 6,9 C 11,8 C 0,0 km/h
15.03.2014 11:00 14,8 C 64 % 993,2 hPa 0,0 l/m 5,8 km/h N 8,1 C 14,8 C 3,2 km/h
15.03.2014 12:00 13,1 C 60 % 993,8 hPa 0,0 l/m 5,8 km/h N-NO 5,5 C 13,1 C 3,2 km/h
15.03.2014 13:00 12,2 C 60 % 994,0 hPa 0,0 l/m 1,9 km/h N 4,7 C 12,2 C 1,1 km/h
15.03.2014 14:00 10,2 C 66 % 994,1 hPa 0,0 l/m 23,3 km/h NW 4,1 C 2,6 C 13,0 km/h
15.03.2014 15:00 9,9 C 70 % 995,0 hPa 0,0 l/m 3,2 km/h NW 4,7 C 9,9 C 1,8 km/h
15.03.2014 16:00 10,3 C 69 % 995,2 hPa 0,0 l/m 2,6 km/h NW 4,9 C 10,3 C 1,4 km/h
15.03.2014 17:00 8,7 C 75 % 995,3 hPa 0,0 l/m 2,6 km/h W 4,5 C 8,7 C 1,4 km/h
15.03.2014 18:00 8,0 C 76 % 995,7 hPa 0,0 l/m 0,0 km/h W 4,0 C 8,0 C 0,0 km/h
15.03.2014 19:00 6,9 C 81 % 996,4 hPa 0,0 l/m 0,0 km/h S 3,9 C 6,9 C 0,0 km/h
15.03.2014 20:00 6,6 C 83 % 996,7 hPa 0,0 l/m 0,0 km/h S 3,9 C 6,6 C 0,0 km/h
15.03.2014 21:00 6,9 C 85 % 997,1 hPa 0,0 l/m 0,0 km/h W 4,6 C 6,9 C 0,0 km/h
15.03.2014 22:00 7,3 C 84 % 997,1 hPa 0,0 l/m 1,1 km/h W 4,8 C 7,3 C 1,1 km/h
15.03.2014 23:00 7,3 C 84 % 996,8 hPa 0,0 l/m 0,0 km/h W-SW 4,8 C 7,3 C 0,0 km/h
16.03.2014 00:00 7,3 C 84 % 996,6 hPa 0,0 l/m 2,9 km/h SW 4,8 C 7,3 C 2,9 km/h
16.03.2014 01:00 7,6 C 83 % 996,3 hPa 0,0 l/m 9,7 km/h W 4,9 C 5,1 C 9,7 km/h
16.03.2014 02:00 7,8 C 83 % 995,8 hPa 0,0 l/m 7,9 km/h W 5,1 C 6,6 C 7,9 km/h
16.03.2014 03:00 7,7 C 83 % 995,2 hPa 0,0 l/m 3,6 km/h W 5,0 C 7,7 C 3,6 km/h
16.03.2014 04:00 7,4 C 83 % 994,7 hPa 0,0 l/m 0,0 km/h W-SW 4,7 C 7,4 C 0,0 km/h
16.03.2014 05:00 7,9 C 82 % 994,4 hPa 0,0 l/m 23,3 km/h W-SW 5,0 C -0,5 C 13,0 km/h
16.03.2014 06:00 7,9 C 81 % 994,5 hPa 0,0 l/m 5,8 km/h W 4,8 C 7,9 C 3,2 km/h
16.03.2014 07:00 8,3 C 80 % 994,9 hPa 0,0 l/m 17,5 km/h W-SW 5,1 C 2,0 C 9,7 km/h
16.03.2014 08:00 10,6 C 77 % 995,1 hPa 0,0 l/m 21,4 km/h SW 6,7 C 3,6 C 11,9 km/h
16.03.2014 09:00 12,1 C 72 % 995,5 hPa 0,0 l/m 38,9 km/h SW 7,2 C 2,2 C 21,6 km/h
16.03.2014 10:00 14,4 C 64 % 995,3 hPa 0,0 l/m 24,6 km/h S-SW 7,7 C 7,9 C 13,7 km/h
16.03.2014 11:00 16,2 C 61 % 994,9 hPa 0,0 l/m 19,4 km/h SW 8,7 C 11,4 C 10,8 km/h
16.03.2014 12:00 16,4 C 60 % 995,0 hPa 0,0 l/m 22,0 km/h W 8,6 C 11,1 C 12,2 km/h
16.03.2014 13:00 17,6 C 55 % 994,2 hPa 0,0 l/m 29,8 km/h W-SW 8,5 C 11,4 C 16,6 km/h
16.03.2014 14:00 18,8 C 51 % 993,5 hPa 0,0 l/m 20,7 km/h W-SW 8,4 C 14,5 C 11,5 km/h
16.03.2014 15:00 20,8 C 45 % 993,2 hPa 0,0 l/m 25,3 km/h SW 8,4 C 16,4 C 14,0 km/h
16.03.2014 16:00 21,2 C 44 % 992,8 hPa 0,0 l/m 23,3 km/h SW 8,5 C 17,2 C 13,0 km/h
16.03.2014 17:00 19,9 C 46 % 992,5 hPa 0,0 l/m 14,9 km/h SW 7,9 C 17,2 C 8,3 km/h
16.03.2014 18:00 15,9 C 53 % 992,6 hPa 0,0 l/m 17,5 km/h SW 6,3 C 11,6 C 9,7 km/h
16.03.2014 19:00 12,5 C 62 % 993,0 hPa 0,0 l/m 8,4 km/h W-SW 5,4 C 11,2 C 4,7 km/h
16.03.2014 20:00 12,0 C 64 % 993,2 hPa 0,0 l/m 0,0 km/h N-NO 5,4 C 12,0 C 0,0 km/h
16.03.2014 21:00 8,8 C 74 % 994,1 hPa 0,0 l/m 1,4 km/h O-NO 4,4 C 8,8 C 1,4 km/h
16.03.2014 22:00 7,3 C 79 % 994,3 hPa 0,0 l/m 0,0 km/h NO 3,9 C 7,3 C 0,0 km/h
16.03.2014 23:00 5,6 C 82 % 994,8 hPa 0,0 l/m 0,0 km/h O-NO 2,8 C 5,6 C 0,0 km/h
Min-Datum _ 12.03.14 11.03.14 10.03.14 - 10.03.14 - 12.03.14 12.03.14 10.03.14
_ Min-Zeit 07:19 16:19 16:19 - 00:19 - 07:19 07:19 00:19
Minimum _ -1,5 C 25 % 990,5 hPa - 0,0 km/h - -4,2 C -1,5 C 0,0 km/h
Max-Datum _ 14.03.14 13.03.14 11.03.14 10.03.14 16.03.14 - 16.03.14 14.03.14 16.03.14
_ Max-Zeit 16:19 06:19 09:19 00:19 09:19 - 11:19 16:19 09:19
Maximum _ 26,2 C 86 % 1022,6 hPa 0,0 l/m 38,9 km/h
SW
- 8,7 C 26,2 C 21,6 km/h
SW
Durchschnitt _ 9,9 C 66 % 996,3 hPa #0,0 l/m 3,0 km/h W 3,1 C 9,4 C 1,7 km/h
www.sexauwetter.de